Time;durP1;ratioP1;P1;durP2;ratioP2;P2;SDS_P1;SDS_P2;PMS_P1;PMS_P2;Temp;Humidity;BMP_temperature;BMP_pressure;BME280_temperature;BME280_humidity;BME280_pressure;Samples;Min_cycle;Max_cycle;Signal;HPM_P1;HPM_P2
2022/12/18 00:01:59;;;;;;;2.00;1.90;;;-3.40;98.20;;;;;;5054577;28;20928;-74
2022/12/18 00:04:28;;;;;;;2.00;1.90;;;-3.40;98.20;;;;;;5066345;28;20859;-73
2022/12/18 00:06:55;;;;;;;2.33;2.13;;;-3.40;98.20;;;;;;5054380;28;20477;-73
2022/12/18 00:09:22;;;;;;;2.03;1.93;;;-3.40;98.20;;;;;;5068449;28;20845;-76
2022/12/18 00:11:49;;;;;;;2.10;2.00;;;-3.40;98.20;;;;;;5050452;28;20476;-73
2022/12/18 00:14:16;;;;;;;2.00;1.90;;;-3.40;98.20;;;;;;5065695;28;20908;-77
2022/12/18 00:16:45;;;;;;;2.00;1.90;;;-3.40;98.20;;;;;;5049326;28;20496;-73
2022/12/18 00:19:12;;;;;;;2.00;1.90;;;-3.40;98.20;;;;;;5059041;28;20454;-75
2022/12/18 00:21:41;;;;;;;3.47;3.27;;;-3.50;98.20;;;;;;5046775;28;21075;-74
2022/12/18 00:24:08;;;;;;;1.93;1.83;;;-3.50;98.20;;;;;;5049007;28;20551;-74
2022/12/18 00:26:36;;;;;;;2.00;1.90;;;-3.50;98.20;;;;;;5051013;28;20491;-75
2022/12/18 00:29:06;;;;;;;2.00;1.90;;;-3.50;98.20;;;;;;5050854;28;20841;-73
2022/12/18 00:31:33;;;;;;;2.00;1.90;;;-3.40;98.20;;;;;;5049108;28;20578;-74
2022/12/18 00:34:00;;;;;;;2.00;1.90;;;-3.40;98.20;;;;;;5052020;28;20741;-75
2022/12/18 00:38:58;;;;;;;2.00;1.90;;;-3.40;98.20;;;;;;5025896;28;20490;-75
2022/12/18 00:44:11;;;;;;;2.07;1.97;;;-3.40;98.20;;;;;;5034821;28;21085;-73
2022/12/18 00:46:38;;;;;;;2.20;2.00;;;-3.40;98.20;;;;;;5047986;28;20576;-72
2022/12/18 00:49:05;;;;;;;2.30;2.10;;;-3.40;98.20;;;;;;5063362;28;20477;-74
2022/12/18 00:51:32;;;;;;;2.03;1.93;;;-3.40;98.20;;;;;;5043075;28;20502;-74
2022/12/18 00:54:00;;;;;;;2.00;1.90;;;-3.30;98.20;;;;;;5059079;28;20850;-74
2022/12/18 00:56:27;;;;;;;2.10;2.00;;;-3.40;98.20;;;;;;5052550;28;20543;-73
2022/12/18 00:58:54;;;;;;;2.10;2.00;;;-3.40;98.20;;;;;;5061286;28;20476;-75
2022/12/18 01:01:20;;;;;;;2.17;2.00;;;-3.40;98.20;;;;;;5052903;28;20860;-75
2022/12/18 01:03:47;;;;;;;2.00;1.90;;;-3.40;98.20;;;;;;5053207;28;20454;-75
2022/12/18 01:06:15;;;;;;;2.77;2.57;;;-3.40;98.20;;;;;;5045937;28;21753;-74
2022/12/18 01:08:41;;;;;;;2.00;1.90;;;-3.40;98.20;;;;;;5052599;28;20462;-74
2022/12/18 01:11:11;;;;;;;2.00;1.90;;;-3.40;98.20;;;;;;5046551;28;20482;-74
2022/12/18 01:13:38;;;;;;;3.53;3.33;;;-3.40;98.20;;;;;;5057235;28;20465;-75
2022/12/18 01:16:06;;;;;;;2.03;1.90;;;-3.40;98.20;;;;;;5051746;28;20480;-74
2022/12/18 01:18:33;;;;;;;2.00;1.90;;;-3.40;98.20;;;;;;5059002;28;20465;-74
2022/12/18 01:20:59;;;;;;;2.37;2.17;;;-3.40;98.20;;;;;;5047019;28;20847;-75
2022/12/18 01:23:26;;;;;;;2.00;1.90;;;-3.40;98.20;;;;;;5061373;28;20469;-74
2022/12/18 01:25:53;;;;;;;2.10;2.00;;;-3.40;98.20;;;;;;5052510;28;20557;-75
2022/12/18 01:28:21;;;;;;;1.90;1.80;;;-3.40;98.20;;;;;;5052279;28;20471;-74
2022/12/18 01:30:48;;;;;;;2.00;1.90;;;-3.40;98.20;;;;;;5046844;28;20455;-76
2022/12/18 01:33:15;;;;;;;2.00;1.90;;;-3.40;98.20;;;;;;5059281;28;20462;-74
2022/12/18 01:35:42;;;;;;;2.47;2.27;;;-3.40;98.20;;;;;;5062112;28;21066;-73
2022/12/18 01:38:09;;;;;;;2.00;1.90;;;-3.40;98.20;;;;;;5034156;28;20470;-74
2022/12/18 01:40:36;;;;;;;2.00;1.90;;;-3.40;98.20;;;;;;5049077;28;20517;-74
2022/12/18 01:43:03;;;;;;;2.37;2.20;;;-3.40;98.20;;;;;;5050554;28;20492;-75
2022/12/18 01:45:33;;;;;;;2.00;1.90;;;-3.40;98.20;;;;;;5060861;28;20507;-75
2022/12/18 01:48:02;;;;;;;2.00;1.90;;;-3.40;98.20;;;;;;5049185;28;20568;-75
2022/12/18 01:50:33;;;;;;;2.40;2.20;;;-3.40;98.20;;;;;;5059635;28;20469;-74
2022/12/18 01:53:04;;;;;;;2.17;2.00;;;-3.40;98.20;;;;;;5049303;28;20482;-74
2022/12/18 01:55:36;;;;;;;2.00;1.90;;;-3.40;98.20;;;;;;5062564;28;20481;-75
2022/12/18 01:58:03;;;;;;;2.00;1.90;;;-3.40;98.20;;;;;;5046049;28;20481;-74
2022/12/18 02:00:31;;;;;;;3.37;3.17;;;-3.30;98.20;;;;;;5058452;28;20473;-74
2022/12/18 02:02:58;;;;;;;2.10;2.00;;;-3.30;98.20;;;;;;5047391;28;20481;-74
2022/12/18 02:05:35;;;;;;;2.30;2.10;;;-3.30;98.20;;;;;;5063664;28;20478;-75
2022/12/18 02:08:10;;;;;;;2.00;1.90;;;-3.30;98.20;;;;;;5034573;28;20482;-74
2022/12/18 02:10:46;;;;;;;2.00;1.90;;;-3.30;98.20;;;;;;5050033;28;20457;-74
2022/12/18 02:13:20;;;;;;;2.00;1.90;;;-3.20;98.20;;;;;;5032357;28;20487;-73
2022/12/18 02:15:57;;;;;;;2.00;1.90;;;-3.20;98.20;;;;;;5055181;28;20826;-74
2022/12/18 02:18:27;;;;;;;2.00;1.90;;;-3.20;98.20;;;;;;5054923;28;20469;-75
2022/12/18 02:21:00;;;;;;;2.00;1.90;;;-3.20;98.20;;;;;;5048065;28;20489;-75
2022/12/18 02:23:46;;;;;;;5.60;4.80;;;-3.20;98.20;;;;;;5055120;28;20926;-74
2022/12/18 02:26:19;;;;;;;2.00;1.90;;;-3.20;98.20;;;;;;5042953;28;20478;-75
2022/12/18 02:28:55;;;;;;;1.97;1.87;;;-3.20;98.20;;;;;;5052365;28;20465;-74
2022/12/18 02:31:25;;;;;;;1.90;1.80;;;-3.20;98.20;;;;;;5047625;28;20485;-75
2022/12/18 02:33:57;;;;;;;2.10;2.00;;;-3.20;98.20;;;;;;5058503;28;20463;-74
2022/12/18 02:36:26;;;;;;;2.00;1.90;;;-3.20;98.20;;;;;;5047905;28;20812;-75
2022/12/18 02:38:54;;;;;;;2.03;1.93;;;-3.20;98.20;;;;;;5046311;28;20488;-74
2022/12/18 02:41:25;;;;;;;2.13;2.03;;;-3.20;98.20;;;;;;5025858;28;21884;-75
2022/12/18 02:43:56;;;;;;;2.00;1.90;;;-3.20;98.20;;;;;;5039681;28;20850;-75
2022/12/18 02:46:35;;;;;;;2.00;1.90;;;-3.20;98.20;;;;;;5040066;28;20489;-74
2022/12/18 02:49:12;;;;;;;2.83;2.63;;;-3.20;98.20;;;;;;5049937;28;20461;-75
2022/12/18 02:51:49;;;;;;;2.00;1.90;;;-3.20;98.20;;;;;;5044837;28;20767;-75
2022/12/18 02:54:34;;;;;;;2.10;2.00;;;-3.10;98.20;;;;;;5062270;28;20965;-74
2022/12/18 02:57:09;;;;;;;2.00;1.90;;;-3.10;98.20;;;;;;5041596;28;20484;-76
2022/12/18 02:59:46;;;;;;;1.90;1.80;;;-3.10;98.20;;;;;;5061045;28;20546;-74
2022/12/18 03:02:21;;;;;;;2.00;1.90;;;-3.00;98.20;;;;;;5042242;28;20485;-73
2022/12/18 03:04:55;;;;;;;2.40;2.20;;;-3.00;98.20;;;;;;5059070;28;20486;-75
2022/12/18 03:07:35;;;;;;;2.07;1.97;;;-3.00;98.20;;;;;;5041372;28;20885;-74
2022/12/18 03:10:03;;;;;;;2.00;1.90;;;-3.00;98.20;;;;;;5046845;28;20464;-75
2022/12/18 03:12:33;;;;;;;2.40;2.20;;;-3.00;98.20;;;;;;5042178;28;20485;-75
2022/12/18 03:15:04;;;;;;;2.13;2.00;;;-3.00;98.20;;;;;;5055034;28;20469;-73
2022/12/18 03:17:33;;;;;;;2.00;1.90;;;-3.00;98.20;;;;;;5046634;28;20494;-75
2022/12/18 03:20:06;;;;;;;2.00;1.90;;;-3.00;98.20;;;;;;5059693;28;20461;-74
2022/12/18 03:22:35;;;;;;;3.10;2.90;;;-3.00;98.20;;;;;;5045504;28;20489;-75
2022/12/18 03:25:04;;;;;;;1.90;1.80;;;-3.00;98.20;;;;;;5060883;28;20493;-74
2022/12/18 03:27:36;;;;;;;2.00;1.90;;;-3.00;98.20;;;;;;5048211;28;20493;-75
2022/12/18 03:30:07;;;;;;;2.00;1.90;;;-3.00;98.20;;;;;;5059983;28;20973;-75
2022/12/18 03:32:39;;;;;;;2.00;1.90;;;-3.00;98.20;;;;;;5045914;28;20772;-74
2022/12/18 03:35:08;;;;;;;2.00;1.90;;;-3.00;98.20;;;;;;5061443;28;20589;-74
2022/12/18 03:37:35;;;;;;;2.13;2.03;;;-3.00;98.20;;;;;;5038861;28;21017;-75
2022/12/18 03:40:02;;;;;;;2.00;1.90;;;-3.00;98.20;;;;;;5048633;28;20838;-74
2022/12/18 03:42:37;;;;;;;2.00;1.90;;;-3.00;98.20;;;;;;5049693;28;20487;-75
2022/12/18 03:45:10;;;;;;;2.00;1.90;;;-3.00;98.20;;;;;;5063687;28;20484;-75
2022/12/18 03:47:42;;;;;;;2.00;1.90;;;-3.00;98.20;;;;;;5049106;28;20850;-74
2022/12/18 03:50:14;;;;;;;2.00;1.90;;;-3.00;98.20;;;;;;5062608;28;20453;-74
2022/12/18 03:52:47;;;;;;;2.00;1.90;;;-2.90;98.20;;;;;;5049844;28;20481;-73
2022/12/18 03:55:14;;;;;;;2.10;2.00;;;-2.90;98.20;;;;;;5066989;28;20477;-75
2022/12/18 03:57:43;;;;;;;3.43;3.20;;;-3.00;98.20;;;;;;5049573;28;20481;-74
2022/12/18 04:00:13;;;;;;;1.93;1.83;;;-3.00;98.20;;;;;;5066108;28;20464;-73
2022/12/18 04:02:43;;;;;;;2.00;1.90;;;-3.00;98.20;;;;;;5051046;28;20536;-73
2022/12/18 04:05:11;;;;;;;1.93;1.83;;;-3.00;98.20;;;;;;5066229;28;20477;-74
2022/12/18 04:07:39;;;;;;;2.10;2.00;;;-3.00;98.20;;;;;;5041372;28;20486;-74
2022/12/18 04:10:07;;;;;;;2.00;1.90;;;-3.00;98.20;;;;;;5050884;28;20461;-75
2022/12/18 04:12:34;;;;;;;1.90;1.80;;;-3.00;98.20;;;;;;5047366;28;20488;-75
2022/12/18 04:15:02;;;;;;;12.43;8.10;;;-3.00;98.20;;;;;;5064778;28;20484;-73
2022/12/18 04:17:29;;;;;;;2.00;1.90;;;-3.10;98.20;;;;;;5047629;28;20481;-74
2022/12/18 04:19:56;;;;;;;1.90;1.80;;;-3.10;98.20;;;;;;5065280;28;20969;-74
2022/12/18 04:22:23;;;;;;;2.40;2.23;;;-3.10;98.20;;;;;;5053221;28;20607;-71
2022/12/18 04:24:49;;;;;;;8.90;5.67;;;-3.10;98.20;;;;;;5062874;28;21002;-74
2022/12/18 04:27:16;;;;;;;2.20;2.07;;;-3.10;98.20;;;;;;5048992;28;20485;-74
2022/12/18 04:29:43;;;;;;;1.97;1.87;;;-3.00;98.20;;;;;;5056271;28;20982;-74
2022/12/18 04:32:11;;;;;;;2.67;2.47;;;-3.00;98.20;;;;;;5047160;28;20480;-73
2022/12/18 04:34:38;;;;;;;2.00;1.90;;;-3.00;98.20;;;;;;5062203;28;20531;-74
2022/12/18 04:37:04;;;;;;;2.20;2.10;;;-3.00;98.20;;;;;;5039806;28;20490;-75
2022/12/18 04:39:31;;;;;;;1.90;1.80;;;-3.00;98.20;;;;;;5047938;28;20512;-76
2022/12/18 04:42:01;;;;;;;1.90;1.80;;;-3.10;98.20;;;;;;5047717;28;21104;-73
2022/12/18 04:44:27;;;;;;;2.00;1.90;;;-3.10;98.20;;;;;;5064435;28;20464;-74
2022/12/18 04:46:55;;;;;;;1.90;1.80;;;-3.10;98.20;;;;;;5050531;28;20485;-75
2022/12/18 04:49:23;;;;;;;2.03;1.93;;;-3.10;98.20;;;;;;5064232;28;20469;-75
2022/12/18 04:51:50;;;;;;;2.00;1.90;;;-3.10;98.20;;;;;;5050025;28;20494;-75
2022/12/18 04:54:23;;;;;;;1.90;1.80;;;-3.20;98.20;;;;;;5062698;28;20465;-73
2022/12/18 04:56:50;;;;;;;1.90;1.80;;;-3.20;98.20;;;;;;5048679;28;20514;-75
2022/12/18 04:59:16;;;;;;;1.80;1.70;;;-3.20;98.20;;;;;;5060202;28;20461;-74
2022/12/18 05:01:43;;;;;;;1.97;1.87;;;-3.30;98.20;;;;;;5045942;28;20491;-74
2022/12/18 05:04:10;;;;;;;2.00;1.90;;;-3.30;98.20;;;;;;5064150;28;20453;-75
2022/12/18 05:06:38;;;;;;;2.50;2.30;;;-3.30;98.20;;;;;;5042152;28;20536;-76
2022/12/18 05:09:05;;;;;;;1.90;1.80;;;-3.40;98.20;;;;;;5045905;28;21117;-73
2022/12/18 05:11:31;;;;;;;2.10;2.00;;;-3.40;98.20;;;;;;5050310;28;20867;-75
2022/12/18 05:13:58;;;;;;;2.83;2.67;;;-3.40;98.20;;;;;;5062570;28;20464;-75
2022/12/18 05:16:25;;;;;;;2.50;2.30;;;-3.40;98.20;;;;;;5047082;28;21420;-74
2022/12/18 05:18:51;;;;;;;3.53;3.30;;;-3.50;98.20;;;;;;5060385;28;20459;-74
2022/12/18 05:21:18;;;;;;;2.00;1.90;;;-3.50;98.20;;;;;;5053527;28;20476;-73
2022/12/18 05:23:49;;;;;;;2.00;1.90;;;-3.50;98.20;;;;;;5048605;28;21179;-74
2022/12/18 05:26:18;;;;;;;2.63;2.43;;;-3.40;98.20;;;;;;5052928;28;20504;-75
2022/12/18 05:28:45;;;;;;;1.90;1.80;;;-3.40;98.20;;;;;;5059968;28;20462;-75
2022/12/18 05:31:12;;;;;;;1.90;1.80;;;-3.40;98.20;;;;;;5054365;28;20553;-74
2022/12/18 05:33:39;;;;;;;2.03;1.93;;;-3.40;98.20;;;;;;5061095;28;21092;-74
2022/12/18 05:36:08;;;;;;;2.00;1.90;;;-3.40;98.20;;;;;;5051796;28;20481;-74
2022/12/18 05:38:36;;;;;;;2.00;1.90;;;-3.40;98.20;;;;;;5044254;28;20489;-75
2022/12/18 05:41:05;;;;;;;2.83;2.63;;;-3.40;98.20;;;;;;5041479;28;20462;-74
2022/12/18 05:43:34;;;;;;;2.00;1.90;;;-3.40;98.20;;;;;;5041377;28;20486;-74
2022/12/18 05:46:05;;;;;;;2.00;1.90;;;-3.40;98.20;;;;;;5040350;28;20478;-72
2022/12/18 05:48:32;;;;;;;1.90;1.80;;;-3.40;98.20;;;;;;5040633;28;20470;-73
2022/12/18 05:51:05;;;;;;;2.00;1.90;;;-3.40;98.20;;;;;;5042468;28;20462;-74
2022/12/18 05:53:33;;;;;;;2.00;1.90;;;-3.40;98.20;;;;;;5042743;28;20451;-73
2022/12/18 05:56:01;;;;;;;2.00;1.90;;;-3.40;98.20;;;;;;5043694;28;20517;-73
2022/12/18 05:58:29;;;;;;;2.00;1.90;;;-3.40;98.20;;;;;;5036908;28;20462;-71
2022/12/18 06:00:56;;;;;;;2.00;1.90;;;-3.30;98.20;;;;;;5044433;28;20461;-72
2022/12/18 06:03:23;;;;;;;2.00;1.90;;;-3.30;98.20;;;;;;5044304;28;20966;-72
2022/12/18 06:05:50;;;;;;;2.00;1.90;;;-3.30;98.20;;;;;;5041289;28;20485;-73
2022/12/18 06:08:16;;;;;;;2.00;1.90;;;-3.20;98.20;;;;;;5043026;28;20470;-73
2022/12/18 06:10:51;;;;;;;2.00;1.90;;;-3.20;98.20;;;;;;5050483;28;20465;-71
2022/12/18 06:13:17;;;;;;;5.23;4.83;;;-3.10;98.20;;;;;;5023616;28;20470;-74
2022/12/18 06:15:45;;;;;;;2.10;2.00;;;-3.10;98.20;;;;;;5049573;28;20569;-74
2022/12/18 06:18:12;;;;;;;2.10;2.00;;;-3.10;98.20;;;;;;5038582;28;20481;-74
2022/12/18 06:20:39;;;;;;;6.43;6.13;;;-3.10;98.20;;;;;;5050789;28;20599;-74
2022/12/18 06:23:06;;;;;;;1.90;1.80;;;-3.10;98.20;;;;;;5033747;28;20856;-74
2022/12/18 06:25:33;;;;;;;1.90;1.80;;;-3.10;98.20;;;;;;5043926;28;20994;-73
2022/12/18 06:28:00;;;;;;;1.93;1.83;;;-3.10;98.20;;;;;;5027802;28;20484;-74
2022/12/18 06:30:27;;;;;;;2.10;2.00;;;-3.10;98.20;;;;;;5046380;28;20818;-73
2022/12/18 06:32:55;;;;;;;2.00;1.90;;;-3.10;98.20;;;;;;5037811;28;20564;-73
2022/12/18 06:35:22;;;;;;;3.00;2.80;;;-3.20;98.20;;;;;;5048209;28;20482;-75
2022/12/18 06:37:48;;;;;;;2.93;2.73;;;-3.20;98.20;;;;;;5032179;28;20478;-72
2022/12/18 06:40:15;;;;;;;2.00;1.90;;;-3.20;98.20;;;;;;5051016;28;20985;-73
2022/12/18 06:42:42;;;;;;;4.57;4.27;;;-3.20;98.20;;;;;;5027485;28;20496;-74
2022/12/18 06:45:10;;;;;;;2.00;1.90;;;-3.20;98.20;;;;;;5047408;28;20640;-73
2022/12/18 06:47:37;;;;;;;4.00;3.80;;;-3.20;98.20;;;;;;5026067;28;20486;-72
2022/12/18 06:50:07;;;;;;;2.00;1.90;;;-3.20;98.20;;;;;;5056009;28;20462;-74
2022/12/18 06:52:33;;;;;;;1.90;1.80;;;-3.30;98.20;;;;;;5029860;28;20482;-75
2022/12/18 06:55:00;;;;;;;1.97;1.87;;;-3.30;98.20;;;;;;5048028;28;20481;-72
2022/12/18 06:57:27;;;;;;;2.00;1.90;;;-3.30;98.20;;;;;;5026543;28;20494;-74
2022/12/18 06:59:53;;;;;;;2.10;2.00;;;-3.40;98.20;;;;;;5053925;28;20503;-74
2022/12/18 07:02:20;;;;;;;3.07;2.87;;;-3.40;98.20;;;;;;5034309;28;20475;-74
2022/12/18 07:04:47;;;;;;;2.00;1.90;;;-3.40;98.20;;;;;;5048487;28;20496;-73
2022/12/18 07:07:15;;;;;;;2.30;2.10;;;-3.40;98.20;;;;;;5034473;28;21002;-74
2022/12/18 07:09:42;;;;;;;1.90;1.80;;;-3.40;98.20;;;;;;5049886;28;20866;-72
2022/12/18 07:12:09;;;;;;;2.00;1.90;;;-3.40;98.20;;;;;;5038011;28;20485;-72
2022/12/18 07:14:36;;;;;;;2.10;2.00;;;-3.50;98.20;;;;;;5046324;28;20465;-72
2022/12/18 07:17:02;;;;;;;1.90;1.80;;;-3.50;98.20;;;;;;5034343;28;20883;-73
2022/12/18 07:19:30;;;;;;;3.50;3.30;;;-3.50;98.20;;;;;;5050621;28;20474;-74
2022/12/18 07:21:57;;;;;;;2.73;2.53;;;-3.50;98.20;;;;;;5041230;28;20485;-71
2022/12/18 07:24:25;;;;;;;1.90;1.80;;;-3.50;98.20;;;;;;5050438;28;20489;-74
2022/12/18 07:26:52;;;;;;;2.00;1.90;;;-3.50;98.20;;;;;;5039673;28;20972;-74
2022/12/18 07:29:18;;;;;;;2.00;1.90;;;-3.50;98.20;;;;;;5052566;28;20465;-74
2022/12/18 07:31:45;;;;;;;2.00;1.90;;;-3.50;98.20;;;;;;5044500;28;20486;-72
2022/12/18 07:34:12;;;;;;;2.10;2.00;;;-3.50;98.20;;;;;;5052936;28;20461;-73
2022/12/18 07:36:39;;;;;;;1.90;1.80;;;-3.50;98.20;;;;;;5040682;28;20493;-74
2022/12/18 07:39:06;;;;;;;2.10;2.00;;;-3.60;98.20;;;;;;5049163;28;20993;-73
2022/12/18 07:41:34;;;;;;;2.30;2.10;;;-3.60;98.20;;;;;;5040319;28;20500;-75
2022/12/18 07:44:01;;;;;;;2.13;1.93;;;-3.60;98.20;;;;;;5051867;28;20500;-75
2022/12/18 07:46:28;;;;;;;2.10;2.00;;;-3.60;98.20;;;;;;5038518;28;20497;-74
2022/12/18 07:48:54;;;;;;;1.90;1.80;;;-3.50;98.20;;;;;;5043298;28;20588;-74
2022/12/18 07:51:21;;;;;;;2.00;1.90;;;-3.50;98.20;;;;;;5036198;28;20896;-75
2022/12/18 07:53:48;;;;;;;2.00;1.90;;;-3.50;98.20;;;;;;5044772;28;20450;-76
2022/12/18 07:56:15;;;;;;;2.03;1.93;;;-3.50;98.20;;;;;;5040046;28;20472;-75
2022/12/18 07:58:44;;;;;;;2.00;1.90;;;-3.50;98.20;;;;;;5044735;28;20844;-74
2022/12/18 08:01:12;;;;;;;2.00;1.90;;;-3.40;98.20;;;;;;5043795;28;20520;-74
2022/12/18 08:03:40;;;;;;;2.10;2.00;;;-3.40;98.20;;;;;;5047232;28;20489;-73
2022/12/18 08:06:09;;;;;;;1.83;1.73;;;-3.30;98.20;;;;;;5041793;28;20478;-75
2022/12/18 08:08:36;;;;;;;1.90;1.80;;;-3.30;98.20;;;;;;5046712;28;20493;-75
2022/12/18 08:11:03;;;;;;;2.30;2.10;;;-3.20;98.20;;;;;;5044179;28;20468;-74
2022/12/18 08:13:30;;;;;;;1.90;1.80;;;-3.20;98.20;;;;;;5041012;28;20462;-76
2022/12/18 08:15:59;;;;;;;1.90;1.80;;;-3.10;98.20;;;;;;5043819;28;20477;-76
2022/12/18 08:18:26;;;;;;;2.00;1.90;;;-3.10;98.20;;;;;;5042706;28;20465;-73
2022/12/18 08:20:53;;;;;;;1.90;1.80;;;-3.10;98.20;;;;;;5043070;28;20465;-74
2022/12/18 08:23:19;;;;;;;2.00;1.90;;;-3.00;98.20;;;;;;5041373;28;20486;-74
2022/12/18 08:25:46;;;;;;;2.00;1.90;;;-3.00;98.20;;;;;;5052772;28;20513;-73
2022/12/18 08:28:13;;;;;;;5.07;4.77;;;-3.00;98.20;;;;;;5015598;28;20737;-75
2022/12/18 08:30:40;;;;;;;2.27;2.07;;;-2.90;98.20;;;;;;5052423;28;20469;-73
2022/12/18 08:33:08;;;;;;;2.10;2.00;;;-2.90;98.20;;;;;;5038388;28;20497;-76
2022/12/18 08:35:36;;;;;;;2.20;2.10;;;-2.90;98.20;;;;;;5050712;28;20493;-75
2022/12/18 08:38:03;;;;;;;2.00;1.90;;;-2.90;98.20;;;;;;5035755;28;20915;-75
2022/12/18 08:40:30;;;;;;;1.90;1.80;;;-2.90;98.20;;;;;;5054514;28;20490;-75
2022/12/18 08:45:56;;;;;;;2.00;1.90;;;-2.80;98.20;;;;;;4975116;28;20467;-72
2022/12/18 08:48:25;;;;;;;2.00;1.90;;;-2.70;98.20;;;;;;4976807;28;20457;-75
2022/12/18 08:50:56;;;;;;;2.00;1.90;;;-2.60;98.20;;;;;;5003572;28;20459;-73
2022/12/18 08:53:27;;;;;;;2.00;1.90;;;-2.50;98.20;;;;;;5040340;28;20498;-73
2022/12/18 08:55:54;;;;;;;2.00;1.90;;;-2.40;98.20;;;;;;5035864;28;20814;-74
2022/12/18 08:58:21;;;;;;;2.00;1.90;;;-2.30;98.20;;;;;;5042493;28;20463;-75
2022/12/18 09:00:48;;;;;;;4.93;4.63;;;-2.30;98.20;;;;;;5038789;28;20493;-73
2022/12/18 09:03:16;;;;;;;2.00;1.90;;;-2.20;98.20;;;;;;5033085;28;20565;-72
2022/12/18 09:05:46;;;;;;;1.90;1.80;;;-2.10;98.20;;;;;;5039125;28;21054;-73
2022/12/18 09:08:13;;;;;;;1.90;1.80;;;-2.10;98.20;;;;;;5015592;28;20470;-73
2022/12/18 09:10:43;;;;;;;8.30;7.90;;;-2.10;98.20;;;;;;5045621;28;20462;-74
2022/12/18 09:13:11;;;;;;;3.00;2.80;;;-2.10;98.20;;;;;;5035997;28;21012;-73
2022/12/18 09:15:42;;;;;;;1.90;1.80;;;-2.00;98.20;;;;;;5046755;28;20478;-73
2022/12/18 09:18:09;;;;;;;1.90;1.80;;;-2.00;98.20;;;;;;5038041;28;20477;-73
2022/12/18 09:20:36;;;;;;;2.00;1.90;;;-2.00;98.20;;;;;;5048834;28;20512;-72
2022/12/18 09:23:05;;;;;;;1.80;1.70;;;-2.00;98.20;;;;;;5033202;28;20600;-72
2022/12/18 09:25:35;;;;;;;1.90;1.80;;;-2.00;98.20;;;;;;5047012;28;20474;-73
2022/12/18 09:28:06;;;;;;;1.90;1.80;;;-2.00;98.20;;;;;;5029892;28;20564;-74
2022/12/18 09:30:34;;;;;;;2.00;1.90;;;-1.90;98.20;;;;;;5049413;28;20498;-72
2022/12/18 09:33:01;;;;;;;1.90;1.80;;;-1.90;98.20;;;;;;5030310;28;20557;-73
2022/12/18 09:35:28;;;;;;;1.90;1.80;;;-1.80;98.20;;;;;;5050594;28;20482;-73
2022/12/18 09:37:55;;;;;;;1.87;1.77;;;-1.80;98.20;;;;;;5029317;28;20504;-72
2022/12/18 09:40:29;;;;;;;2.20;2.00;;;-1.70;98.20;;;;;;5049826;28;20527;-74
2022/12/18 09:43:01;;;;;;;2.00;1.90;;;-1.70;98.20;;;;;;5031128;28;20480;-75
2022/12/18 09:45:29;;;;;;;3.33;3.13;;;-1.70;98.20;;;;;;5048149;28;20474;-73
2022/12/18 09:47:57;;;;;;;2.00;1.90;;;-1.60;98.20;;;;;;5030812;28;20482;-73
2022/12/18 09:50:30;;;;;;;1.90;1.80;;;-1.60;98.20;;;;;;5050750;28;20883;-74
2022/12/18 09:53:01;;;;;;;1.90;1.80;;;-1.60;98.20;;;;;;5034164;28;20535;-73
2022/12/18 09:55:35;;;;;;;2.30;2.10;;;-1.50;98.20;;;;;;5046509;28;20486;-73
2022/12/18 09:58:06;;;;;;;1.90;1.80;;;-1.50;98.20;;;;;;5015225;28;20479;-73
2022/12/18 10:00:33;;;;;;;1.80;1.70;;;-1.40;98.20;;;;;;5048292;28;20541;-73
2022/12/18 10:03:10;;;;;;;2.93;2.73;;;-1.40;98.20;;;;;;5026468;28;20486;-73
2022/12/18 10:05:42;;;;;;;1.90;1.80;;;-1.40;98.20;;;;;;5043353;28;20482;-72
2022/12/18 10:08:13;;;;;;;1.80;1.70;;;-1.30;98.20;;;;;;5027935;28;20482;-74
2022/12/18 10:10:48;;;;;;;1.80;1.70;;;-1.30;98.20;;;;;;5044811;28;20458;-74
2022/12/18 10:13:24;;;;;;;1.80;1.70;;;-1.30;98.20;;;;;;5017321;28;20651;-72
2022/12/18 10:16:04;;;;;;;1.80;1.70;;;-1.20;98.20;;;;;;5033147;28;20822;-71
2022/12/18 10:18:46;;;;;;;3.27;3.07;;;-1.20;98.20;;;;;;5040673;28;20458;-74
2022/12/18 10:21:20;;;;;;;1.70;1.60;;;-1.20;98.20;;;;;;5035313;28;20570;-73
2022/12/18 10:23:57;;;;;;;2.20;2.00;;;-1.10;98.20;;;;;;5039638;28;20497;-72
2022/12/18 10:26:26;;;;;;;2.57;2.37;;;-1.10;98.20;;;;;;5031779;28;20488;-73
2022/12/18 10:28:56;;;;;;;16.23;14.77;;;-1.00;98.20;;;;;;5033608;28;20585;-74
2022/12/18 10:31:25;;;;;;;2.00;1.87;;;-1.00;98.20;;;;;;5034357;28;20543;-74
2022/12/18 10:33:54;;;;;;;2.90;2.70;;;-0.90;98.20;;;;;;5042135;28;20885;-73
2022/12/18 10:36:21;;;;;;;1.80;1.70;;;-0.80;98.20;;;;;;5032146;28;20487;-72
2022/12/18 10:38:48;;;;;;;1.90;1.80;;;-0.80;98.20;;;;;;5034598;28;20474;-73
2022/12/18 10:41:27;;;;;;;2.20;2.00;;;-0.70;98.20;;;;;;5031593;28;20512;-73
2022/12/18 10:44:16;;;;;;;2.00;1.90;;;-0.70;98.20;;;;;;5038495;28;20493;-73
2022/12/18 10:46:43;;;;;;;2.00;1.90;;;-0.60;98.20;;;;;;5032363;28;20497;-73
2022/12/18 10:49:22;;;;;;;1.80;1.70;;;-0.60;98.20;;;;;;5043376;28;20462;-75
2022/12/18 10:51:49;;;;;;;1.80;1.70;;;-0.50;98.20;;;;;;5029948;28;20481;-73
2022/12/18 10:54:18;;;;;;;1.80;1.70;;;-0.50;98.20;;;;;;5038263;28;20474;-72
2022/12/18 10:56:47;;;;;;;1.77;1.67;;;-0.40;98.20;;;;;;5029919;28;21019;-72
2022/12/18 10:59:17;;;;;;;2.37;2.17;;;-0.40;98.20;;;;;;5040246;28;20457;-72
2022/12/18 11:01:50;;;;;;;1.70;1.60;;;-0.40;98.20;;;;;;5033630;28;20480;-73
2022/12/18 11:04:21;;;;;;;1.80;1.70;;;-0.30;98.20;;;;;;5043895;28;20477;-73
2022/12/18 11:06:57;;;;;;;1.87;1.77;;;-0.30;98.20;;;;;;5029923;28;20860;-74
2022/12/18 11:09:25;;;;;;;1.90;1.80;;;-0.30;98.20;;;;;;5037798;28;20844;-72
2022/12/18 11:11:56;;;;;;;1.80;1.70;;;-0.20;98.20;;;;;;5030023;28;21094;-73
2022/12/18 11:14:25;;;;;;;2.10;1.90;;;-0.20;98.20;;;;;;5037943;28;20533;-73
2022/12/18 11:16:53;;;;;;;1.70;1.60;;;-0.20;98.20;;;;;;5029098;28;20494;-73
2022/12/18 11:19:31;;;;;;;1.87;1.77;;;-0.20;98.20;;;;;;5042571;28;20520;-73
2022/12/18 11:21:58;;;;;;;1.80;1.70;;;-0.10;98.20;;;;;;5031818;28;20967;-73
2022/12/18 11:24:30;;;;;;;1.70;1.60;;;-0.10;98.20;;;;;;5042225;28;20545;-73
2022/12/18 11:27:01;;;;;;;1.90;1.80;;;-0.10;98.20;;;;;;5025963;28;20562;-72
2022/12/18 11:29:40;;;;;;;1.80;1.70;;;-0.10;98.20;;;;;;5038570;28;20489;-72
2022/12/18 11:32:34;;;;;;;1.77;1.67;;;-0.10;98.20;;;;;;5031916;28;20851;-72
2022/12/18 11:35:11;;;;;;;1.70;1.60;;;-0.10;98.20;;;;;;5043055;28;20884;-74
2022/12/18 11:37:41;;;;;;;1.70;1.60;;;-0.10;98.20;;;;;;5025815;28;20913;-74
2022/12/18 11:40:15;;;;;;;1.83;1.73;;;0.00;98.20;;;;;;5041720;28;20458;-73
2022/12/18 11:42:51;;;;;;;3.80;3.50;;;-0.10;98.20;;;;;;5034115;28;20525;-72
2022/12/18 11:45:30;;;;;;;1.70;1.60;;;-0.10;98.20;;;;;;5041927;28;21245;-74
2022/12/18 11:48:10;;;;;;;1.90;1.80;;;0.00;98.20;;;;;;5030715;28;21087;-72
2022/12/18 11:50:49;;;;;;;1.70;1.60;;;-0.10;98.20;;;;;;5042993;28;20474;-73
2022/12/18 11:53:17;;;;;;;1.83;1.73;;;-0.10;98.20;;;;;;5024654;28;20478;-73
2022/12/18 11:55:55;;;;;;;2.43;2.23;;;-0.10;98.20;;;;;;5044953;28;20969;-73
2022/12/18 11:58:41;;;;;;;1.87;1.77;;;-0.10;98.20;;;;;;5014649;28;20481;-73
2022/12/18 12:01:16;;;;;;;1.70;1.60;;;-0.10;98.20;;;;;;5032713;28;21017;-72
2022/12/18 12:04:20;;;;;;;1.70;1.60;;;-0.10;98.20;;;;;;5031957;28;20989;-72
2022/12/18 12:06:58;;;;;;;1.70;1.60;;;0.00;98.20;;;;;;5022070;28;20878;-76
2022/12/18 12:09:30;;;;;;;1.80;1.70;;;0.00;98.20;;;;;;5040375;28;20462;-74
2022/12/18 12:12:17;;;;;;;1.80;1.70;;;0.00;98.20;;;;;;5035033;28;20576;-73
2022/12/18 12:14:53;;;;;;;1.70;1.60;;;0.00;98.20;;;;;;5044356;28;20458;-73
2022/12/18 12:17:28;;;;;;;1.67;1.50;;;0.00;98.20;;;;;;5027372;28;20592;-72
2022/12/18 12:20:03;;;;;;;1.70;1.60;;;-0.10;98.20;;;;;;5043939;28;20467;-74
2022/12/18 12:22:38;;;;;;;1.70;1.60;;;-0.10;98.20;;;;;;5029461;28;20591;-75
2022/12/18 12:25:27;;;;;;;3.20;3.00;;;-0.10;98.20;;;;;;5043652;28;20494;-75
2022/12/18 12:28:06;;;;;;;5.80;5.40;;;-0.10;98.20;;;;;;5025795;28;20595;-72
2022/12/18 12:30:42;;;;;;;1.80;1.70;;;-0.10;98.20;;;;;;5044680;28;20462;-74
2022/12/18 12:33:23;;;;;;;1.70;1.60;;;-0.10;98.20;;;;;;5032348;28;20484;-74
2022/12/18 12:35:59;;;;;;;1.70;1.60;;;-0.10;98.20;;;;;;5029136;28;20478;-72
2022/12/18 12:38:32;;;;;;;4.43;4.13;;;-0.10;98.20;;;;;;5039878;28;20472;-73
2022/12/18 12:41:03;;;;;;;1.80;1.70;;;-0.10;98.20;;;;;;5034461;28;20470;-74
2022/12/18 12:43:35;;;;;;;1.70;1.60;;;-0.10;98.20;;;;;;5037397;28;20501;-72
2022/12/18 12:46:05;;;;;;;1.80;1.70;;;-0.10;98.20;;;;;;5033247;28;20490;-72
2022/12/18 12:48:42;;;;;;;2.00;1.90;;;-0.10;98.20;;;;;;5042894;28;20459;-75
2022/12/18 12:51:15;;;;;;;2.07;1.90;;;-0.10;98.20;;;;;;5033408;28;20493;-74
2022/12/18 12:53:42;;;;;;;1.70;1.60;;;-0.10;98.20;;;;;;5037964;28;20833;-74
2022/12/18 12:56:12;;;;;;;11.43;8.23;;;-0.20;98.20;;;;;;5034191;28;20490;-75
2022/12/18 12:58:50;;;;;;;1.70;1.60;;;-0.10;98.20;;;;;;5038214;28;20461;-74
2022/12/18 13:01:26;;;;;;;1.70;1.60;;;-0.10;98.20;;;;;;5033751;28;20485;-75
2022/12/18 13:04:07;;;;;;;1.80;1.70;;;-0.10;98.20;;;;;;5037649;28;20559;-74
2022/12/18 13:06:43;;;;;;;2.17;2.00;;;-0.10;98.20;;;;;;5033953;28;20482;-75
2022/12/18 13:09:09;;;;;;;1.70;1.60;;;-0.10;98.20;;;;;;5040842;28;20454;-72
2022/12/18 13:14:30;;;;;;;1.80;1.70;;;-0.10;98.20;;;;;;5042032;28;20449;-73